Time;durP1;ratioP1;P1;durP2;ratioP2;P2;SDS_P1;SDS_P2;PMS_P1;PMS_P2;Temp;Humidity;BMP_temperature;BMP_pressure;BME280_temperature;BME280_humidity;BME280_pressure;Samples;Min_cycle;Max_cycle;Signal;HPM_P1;HPM_P2
2021/03/02 00:00:13;;;;;;;28.00;18.33;;;1.50;99.90;;;;;;4986300;28;20188;-51
2021/03/02 00:02:41;;;;;;;29.27;18.93;;;1.50;99.90;;;;;;4997485;28;20364;-52
2021/03/02 00:05:12;;;;;;;32.87;18.73;;;1.40;99.90;;;;;;5007310;28;20216;-52
2021/03/02 00:07:38;;;;;;;29.73;18.97;;;1.40;99.90;;;;;;4995986;28;20283;-47
2021/03/02 00:10:09;;;;;;;30.73;18.70;;;1.50;99.90;;;;;;5009041;28;20212;-54
2021/03/02 00:12:35;;;;;;;31.43;17.57;;;1.50;99.90;;;;;;4985167;28;20204;-52
2021/03/02 00:15:03;;;;;;;28.63;18.03;;;1.50;99.90;;;;;;5002870;28;20281;-53
2021/03/02 00:17:35;;;;;;;31.67;18.37;;;1.40;99.90;;;;;;5013997;28;20193;-47
2021/03/02 00:20:08;;;;;;;28.90;18.10;;;1.40;99.90;;;;;;5003576;28;20271;-53
2021/03/02 00:23:06;;;;;;;34.57;18.80;;;1.30;99.90;;;;;;5004251;28;20291;-50
2021/03/02 00:25:35;;;;;;;28.60;17.30;;;1.30;99.90;;;;;;5006670;28;20646;-50
2021/03/02 00:28:04;;;;;;;28.03;14.80;;;1.40;99.90;;;;;;4990422;28;20282;-50
2021/03/02 00:30:30;;;;;;;30.03;17.27;;;1.30;99.90;;;;;;4999827;28;20406;-49
2021/03/02 00:32:58;;;;;;;25.83;16.50;;;1.30;99.90;;;;;;5000596;28;20673;-47
2021/03/02 00:35:24;;;;;;;28.77;17.07;;;1.30;99.90;;;;;;4990711;28;20216;-49
2021/03/02 00:37:49;;;;;;;29.87;17.30;;;1.30;99.90;;;;;;5001006;28;20189;-50
2021/03/02 00:40:16;;;;;;;27.27;16.57;;;1.30;99.90;;;;;;5011596;28;20193;-51
2021/03/02 00:42:42;;;;;;;30.30;17.67;;;1.30;99.90;;;;;;4984598;28;20200;-52
2021/03/02 00:45:09;;;;;;;28.43;17.67;;;1.20;99.90;;;;;;5000314;28;20215;-51
2021/03/02 00:47:34;;;;;;;28.13;16.93;;;1.30;99.90;;;;;;5005447;28;20203;-47
2021/03/02 00:50:01;;;;;;;25.30;16.17;;;1.20;99.90;;;;;;5006969;28;20179;-53
2021/03/02 00:52:27;;;;;;;32.00;17.50;;;1.20;99.90;;;;;;5011493;28;20747;-48
2021/03/02 00:54:52;;;;;;;29.87;18.30;;;1.10;99.90;;;;;;5018681;28;20229;-53
2021/03/02 00:57:18;;;;;;;31.27;18.40;;;1.10;99.90;;;;;;4999971;28;20743;-50
2021/03/02 00:59:43;;;;;;;28.50;17.40;;;1.10;99.90;;;;;;4998367;28;20547;-47
2021/03/02 01:02:09;;;;;;;28.40;17.80;;;1.10;99.90;;;;;;4995360;28;20590;-49
2021/03/02 01:04:35;;;;;;;29.77;16.10;;;1.00;99.90;;;;;;4999912;28;20238;-48
2021/03/02 01:07:01;;;;;;;27.43;16.47;;;1.00;99.90;;;;;;5002450;28;20600;-49
2021/03/02 01:09:29;;;;;;;26.30;15.87;;;0.90;99.90;;;;;;5016742;28;20249;-50
2021/03/02 01:11:56;;;;;;;27.57;16.57;;;0.90;99.90;;;;;;5010415;28;20199;-53
2021/03/02 01:14:23;;;;;;;30.27;18.50;;;0.90;99.90;;;;;;4993683;28;20605;-52
2021/03/02 01:16:48;;;;;;;32.10;18.03;;;0.90;99.90;;;;;;5008726;28;20184;-47
2021/03/02 01:19:14;;;;;;;29.00;18.03;;;0.90;99.90;;;;;;4992910;28;20723;-49
2021/03/02 01:21:39;;;;;;;26.50;17.57;;;0.80;99.90;;;;;;5007933;28;20528;-47
2021/03/02 01:24:05;;;;;;;28.93;17.50;;;0.80;99.90;;;;;;5005636;28;20229;-48
2021/03/02 01:26:31;;;;;;;26.77;17.07;;;0.80;99.90;;;;;;5005891;28;20260;-50
2021/03/02 01:28:56;;;;;;;28.83;17.60;;;0.90;99.90;;;;;;5014602;28;20186;-49
2021/03/02 01:31:22;;;;;;;31.13;18.53;;;0.80;99.90;;;;;;4975153;28;20577;-48
2021/03/02 01:33:48;;;;;;;39.87;19.87;;;0.80;99.90;;;;;;5004007;28;20269;-51
2021/03/02 01:36:13;;;;;;;34.17;19.33;;;0.70;99.90;;;;;;5007279;28;20650;-54
2021/03/02 01:38:39;;;;;;;33.80;18.07;;;0.70;99.90;;;;;;5001700;28;20650;-52
2021/03/02 01:41:05;;;;;;;35.53;18.47;;;0.60;99.90;;;;;;5019326;28;20540;-52
2021/03/02 01:43:30;;;;;;;37.90;18.63;;;0.60;99.90;;;;;;5002568;28;20361;-48
2021/03/02 01:45:56;;;;;;;31.60;18.00;;;0.60;99.90;;;;;;4991805;28;20268;-47
2021/03/02 01:48:21;;;;;;;32.97;18.37;;;0.60;99.90;;;;;;4999599;28;20241;-48
2021/03/02 01:50:47;;;;;;;31.43;18.47;;;0.60;99.90;;;;;;5018722;28;20186;-50
2021/03/02 01:53:13;;;;;;;30.40;18.23;;;0.60;99.90;;;;;;5001943;28;20822;-52
2021/03/02 01:55:38;;;;;;;31.10;17.53;;;0.70;99.90;;;;;;5013378;28;20206;-52
2021/03/02 01:58:04;;;;;;;31.30;17.93;;;0.70;99.90;;;;;;5011897;28;20186;-50
2021/03/02 02:00:37;;;;;;;30.37;17.53;;;0.60;99.90;;;;;;4984572;28;21107;-54
2021/03/02 02:03:35;;;;;;;27.53;17.40;;;0.60;99.90;;;;;;5001696;28;20182;-49
2021/03/02 02:06:12;;;;;;;29.33;16.13;;;0.60;99.90;;;;;;5003817;28;20210;-49
2021/03/02 02:08:46;;;;;;;27.67;16.63;;;0.60;99.90;;;;;;5007344;28;20268;-52
2021/03/02 02:11:19;;;;;;;28.13;15.40;;;0.60;99.90;;;;;;5018004;28;20217;-50
2021/03/02 02:13:50;;;;;;;33.37;16.87;;;0.60;99.90;;;;;;5004854;28;20229;-53
2021/03/02 02:16:19;;;;;;;26.60;16.10;;;0.60;99.90;;;;;;4994609;28;20195;-54
2021/03/02 02:18:48;;;;;;;26.33;15.83;;;0.60;99.90;;;;;;4999660;28;20219;-53
2021/03/02 02:21:33;;;;;;;28.93;16.03;;;0.60;99.90;;;;;;5005566;28;20520;-50
2021/03/02 02:24:16;;;;;;;26.23;15.47;;;0.60;99.90;;;;;;5005271;28;20604;-48
2021/03/02 02:27:01;;;;;;;26.00;15.47;;;0.50;99.90;;;;;;5013368;28;20606;-54
2021/03/02 02:29:32;;;;;;;24.07;15.30;;;0.50;99.90;;;;;;4994814;28;20217;-51
2021/03/02 02:32:00;;;;;;;27.70;15.43;;;0.50;99.90;;;;;;4990141;28;20197;-52
2021/03/02 02:34:28;;;;;;;25.03;15.30;;;0.40;99.90;;;;;;5001767;28;20352;-51
2021/03/02 02:36:57;;;;;;;26.40;15.23;;;0.40;99.90;;;;;;4996769;28;20193;-55
2021/03/02 02:39:24;;;;;;;27.57;16.50;;;0.40;99.90;;;;;;4998467;28;20304;-50
2021/03/02 02:41:51;;;;;;;30.87;15.63;;;0.40;99.90;;;;;;5007047;28;20290;-51
2021/03/02 02:44:18;;;;;;;28.57;16.03;;;0.30;99.90;;;;;;5009169;28;20222;-48
2021/03/02 02:46:45;;;;;;;27.13;14.67;;;0.30;99.90;;;;;;4991927;28;20217;-52
2021/03/02 02:49:13;;;;;;;26.90;14.73;;;0.30;99.90;;;;;;4995947;28;20282;-49
2021/03/02 02:51:39;;;;;;;26.73;14.67;;;0.20;99.90;;;;;;5002094;28;20203;-45
2021/03/02 02:54:07;;;;;;;28.60;15.57;;;0.20;99.90;;;;;;4998803;28;20265;-51
2021/03/02 02:56:35;;;;;;;24.03;14.70;;;0.20;99.90;;;;;;4997430;28;20678;-47
2021/03/02 02:59:20;;;;;;;24.53;14.50;;;0.10;99.90;;;;;;5002072;28;20705;-50
2021/03/02 03:01:52;;;;;;;27.47;14.57;;;0.10;99.90;;;;;;4989885;28;20195;-47
2021/03/02 03:04:21;;;;;;;32.10;14.53;;;0.10;99.90;;;;;;4998338;28;20229;-49
2021/03/02 03:06:49;;;;;;;25.50;14.47;;;0.10;99.90;;;;;;4996662;28;20197;-53
2021/03/02 03:09:16;;;;;;;24.57;14.83;;;0.10;99.90;;;;;;4992156;28;20213;-47
2021/03/02 03:11:50;;;;;;;26.67;15.13;;;0.10;99.90;;;;;;5014428;28;20189;-47
2021/03/02 03:14:18;;;;;;;29.33;15.60;;;0.10;99.90;;;;;;4995244;28;20213;-54
2021/03/02 03:16:45;;;;;;;24.90;14.90;;;0.10;99.90;;;;;;4990437;28;20190;-52
2021/03/02 03:19:22;;;;;;;28.30;14.47;;;0.10;99.90;;;;;;4997293;28;20241;-46
2021/03/02 03:21:47;;;;;;;27.53;13.87;;;0.10;99.90;;;;;;5001936;28;20177;-49
2021/03/02 03:24:14;;;;;;;24.13;13.90;;;0.00;99.90;;;;;;4983397;28;20296;-48
2021/03/02 03:26:41;;;;;;;24.07;14.03;;;0.00;99.90;;;;;;4982454;28;20284;-54
2021/03/02 03:29:08;;;;;;;27.67;15.03;;;0.00;99.90;;;;;;5000962;28;20237;-50
2021/03/02 03:31:34;;;;;;;28.67;15.07;;;0.00;99.90;;;;;;5000935;28;20744;-48
2021/03/02 03:34:00;;;;;;;25.10;14.83;;;0.00;99.90;;;;;;4987433;28;20193;-52
2021/03/02 03:36:27;;;;;;;23.73;13.67;;;0.00;99.90;;;;;;5000550;28;20376;-49
2021/03/02 03:38:53;;;;;;;22.23;13.80;;;0.00;99.90;;;;;;5016260;28;20592;-50
2021/03/02 03:41:18;;;;;;;25.57;14.30;;;0.10;99.90;;;;;;4991320;28;20322;-53
2021/03/02 03:43:44;;;;;;;22.03;13.50;;;0.10;99.90;;;;;;5000855;28;20675;-48
2021/03/02 03:46:09;;;;;;;22.67;13.70;;;0.10;99.90;;;;;;5010309;28;20214;-55
2021/03/02 03:48:35;;;;;;;28.57;13.37;;;0.00;99.90;;;;;;4985931;28;20464;-48
2021/03/02 03:51:01;;;;;;;22.30;12.10;;;0.00;99.90;;;;;;5000712;28;20229;-51
2021/03/02 03:53:32;;;;;;;20.97;12.13;;;0.10;99.90;;;;;;4997652;28;20209;-50
2021/03/02 03:55:58;;;;;;;19.63;12.03;;;0.10;99.90;;;;;;4999686;28;20207;-48
2021/03/02 03:58:28;;;;;;;18.93;12.43;;;0.10;99.90;;;;;;5004872;28;20349;-48
2021/03/02 04:00:54;;;;;;;18.40;12.57;;;0.20;99.90;;;;;;5016838;28;20781;-49
2021/03/02 04:03:22;;;;;;;21.43;12.40;;;0.10;99.90;;;;;;4988220;28;20518;-49
2021/03/02 04:05:48;;;;;;;24.83;13.63;;;0.10;99.90;;;;;;5001761;28;20202;-49
2021/03/02 04:08:15;;;;;;;22.17;13.20;;;0.00;99.90;;;;;;4992951;28;20190;-52
2021/03/02 04:10:42;;;;;;;21.70;12.60;;;0.10;99.90;;;;;;5011563;28;20240;-48
2021/03/02 04:13:16;;;;;;;22.43;12.57;;;0.10;99.90;;;;;;5000084;28;20648;-48
2021/03/02 04:15:42;;;;;;;22.77;12.80;;;0.10;99.90;;;;;;5001560;28;20215;-49
2021/03/02 04:18:10;;;;;;;21.27;13.17;;;0.10;99.90;;;;;;5007362;28;20275;-51
2021/03/02 04:20:36;;;;;;;21.47;12.93;;;0.10;99.90;;;;;;4994384;28;20780;-46
2021/03/02 04:23:02;;;;;;;22.57;13.00;;;0.10;99.90;;;;;;5004547;28;20225;-49
2021/03/02 04:25:27;;;;;;;21.37;12.73;;;0.10;99.90;;;;;;5002316;28;20234;-49
2021/03/02 04:27:53;;;;;;;21.73;12.97;;;0.10;99.90;;;;;;5003522;28;20250;-51
2021/03/02 04:30:19;;;;;;;55.47;14.83;;;0.10;99.90;;;;;;5009480;28;20279;-49
2021/03/02 04:32:44;;;;;;;27.30;13.93;;;0.10;99.90;;;;;;5011746;28;20182;-50
2021/03/02 04:35:11;;;;;;;28.57;12.97;;;0.00;99.90;;;;;;4989247;28;20256;-50
2021/03/02 04:37:37;;;;;;;36.47;13.93;;;0.10;99.90;;;;;;5010707;28;20264;-52
2021/03/02 04:40:05;;;;;;;36.57;14.80;;;0.00;99.90;;;;;;5001137;28;20194;-48
2021/03/02 04:42:30;;;;;;;40.77;14.87;;;0.00;99.90;;;;;;5001895;28;20453;-52
2021/03/02 04:44:56;;;;;;;26.43;14.40;;;0.00;99.90;;;;;;5000468;28;20240;-48
2021/03/02 04:47:22;;;;;;;42.20;14.17;;;0.00;99.90;;;;;;5001615;28;20252;-49
2021/03/02 04:49:47;;;;;;;40.50;15.27;;;-0.10;99.90;;;;;;4990215;28;20239;-53
2021/03/02 04:52:13;;;;;;;35.33;13.87;;;0.00;99.90;;;;;;4996428;28;20265;-50
2021/03/02 04:54:38;;;;;;;26.20;14.00;;;0.00;99.90;;;;;;5002660;28;20194;-53
2021/03/02 04:57:04;;;;;;;25.93;14.40;;;0.00;99.90;;;;;;5009967;28;20638;-51
2021/03/02 04:59:29;;;;;;;25.07;13.87;;;0.00;99.90;;;;;;5010408;28;20248;-46
2021/03/02 05:01:55;;;;;;;25.03;12.87;;;-0.10;99.90;;;;;;5003192;28;20192;-49
2021/03/02 05:04:20;;;;;;;24.47;14.07;;;-0.10;99.90;;;;;;4999828;28;20290;-49
2021/03/02 05:06:46;;;;;;;25.93;13.93;;;-0.20;99.90;;;;;;4994096;28;20182;-47
2021/03/02 05:09:11;;;;;;;24.43;13.50;;;-0.20;99.90;;;;;;4995764;28;20184;-54
2021/03/02 05:11:37;;;;;;;30.93;13.43;;;-0.20;99.90;;;;;;5001838;28;20193;-46
2021/03/02 05:14:02;;;;;;;27.27;14.07;;;-0.20;99.90;;;;;;5003414;28;20201;-49
2021/03/02 05:16:28;;;;;;;26.43;12.93;;;-0.20;99.90;;;;;;5003353;28;20336;-51
2021/03/02 05:18:53;;;;;;;20.73;12.17;;;-0.30;99.90;;;;;;5016716;28;20278;-51
2021/03/02 05:21:19;;;;;;;20.33;12.20;;;-0.30;99.90;;;;;;4990280;28;20301;-52
2021/03/02 05:23:45;;;;;;;23.20;13.73;;;-0.20;99.90;;;;;;5003726;28;20213;-52
2021/03/02 05:26:10;;;;;;;24.67;14.47;;;-0.10;99.90;;;;;;5006396;28;20193;-46
2021/03/02 05:28:36;;;;;;;21.83;12.13;;;-0.10;99.90;;;;;;4998820;28;20383;-51
2021/03/02 05:31:02;;;;;;;23.07;13.87;;;-0.10;99.90;;;;;;5006804;28;20181;-49
2021/03/02 05:33:27;;;;;;;26.33;13.50;;;-0.20;99.90;;;;;;4998653;28;20730;-50
2021/03/02 05:35:53;;;;;;;26.27;13.63;;;-0.20;99.90;;;;;;5002000;28;20239;-54
2021/03/02 05:38:18;;;;;;;26.87;13.87;;;-0.20;99.90;;;;;;4984094;28;20528;-51
2021/03/02 05:40:44;;;;;;;27.60;14.37;;;-0.20;99.90;;;;;;4996172;28;20220;-50
2021/03/02 05:43:10;;;;;;;32.67;15.33;;;-0.20;99.90;;;;;;5005869;28;20209;-49
2021/03/02 05:45:36;;;;;;;48.03;13.90;;;-0.20;99.90;;;;;;4995130;28;20252;-46
2021/03/02 05:48:05;;;;;;;58.93;15.00;;;-0.20;99.90;;;;;;4995739;28;20180;-48
2021/03/02 05:50:31;;;;;;;42.90;14.13;;;-0.20;99.90;;;;;;5009232;28;20189;-48
2021/03/02 05:52:57;;;;;;;40.60;14.60;;;-0.20;99.90;;;;;;4991178;28;20197;-48
2021/03/02 05:55:23;;;;;;;44.13;16.00;;;-0.20;99.90;;;;;;4997695;28;20585;-46
2021/03/02 05:57:49;;;;;;;81.47;16.67;;;-0.20;99.90;;;;;;5000466;28;20642;-49
2021/03/02 06:00:15;;;;;;;75.77;16.50;;;-0.20;99.90;;;;;;4997107;28;20196;-51
2021/03/02 06:02:41;;;;;;;30.97;15.40;;;-0.30;99.90;;;;;;4998463;28;20216;-50
2021/03/02 06:05:07;;;;;;;35.23;15.30;;;-0.30;99.90;;;;;;4996281;28;20201;-51
2021/03/02 06:07:33;;;;;;;52.13;15.53;;;-0.20;99.90;;;;;;4989046;28;23751;-51
2021/03/02 06:09:58;;;;;;;45.77;15.13;;;-0.20;99.90;;;;;;5004331;28;20186;-52
2021/03/02 06:12:24;;;;;;;64.67;17.70;;;-0.30;99.90;;;;;;4988578;28;20188;-50
2021/03/02 06:15:05;;;;;;;52.83;15.17;;;-0.30;99.90;;;;;;4994576;28;20201;-54
2021/03/02 06:17:31;;;;;;;70.80;15.30;;;-0.30;99.90;;;;;;4991867;28;20211;-51
2021/03/02 06:19:57;;;;;;;57.90;15.03;;;-0.30;99.90;;;;;;4992282;28;20216;-53
2021/03/02 06:22:37;;;;;;;64.57;17.10;;;-0.30;99.90;;;;;;4999283;28;20189;-49
2021/03/02 06:25:05;;;;;;;48.67;16.03;;;-0.30;99.90;;;;;;4987760;28;20894;-54
2021/03/02 06:27:32;;;;;;;50.47;15.27;;;-0.30;99.90;;;;;;5010223;28;20645;-52
2021/03/02 06:30:13;;;;;;;46.13;14.77;;;-0.30;99.90;;;;;;4997271;28;20170;-53
2021/03/02 06:32:41;;;;;;;27.97;15.33;;;-0.30;99.90;;;;;;5001629;28;20186;-48
2021/03/02 06:35:09;;;;;;;44.50;16.03;;;-0.30;99.90;;;;;;4991679;28;20218;-48
2021/03/02 06:37:46;;;;;;;50.23;16.00;;;-0.20;99.90;;;;;;5004830;28;20240;-55
2021/03/02 06:40:14;;;;;;;42.33;15.37;;;-0.20;99.90;;;;;;4993195;28;20244;-49
2021/03/02 06:42:42;;;;;;;44.83;15.87;;;-0.30;99.90;;;;;;5001824;28;20205;-54
2021/03/02 06:45:14;;;;;;;34.97;15.93;;;-0.20;99.90;;;;;;5004198;28;20553;-48
2021/03/02 06:47:41;;;;;;;47.00;17.37;;;-0.20;99.90;;;;;;5001992;28;20188;-53
2021/03/02 06:50:10;;;;;;;75.43;16.93;;;-0.20;99.90;;;;;;4996990;28;20216;-48
2021/03/02 06:52:38;;;;;;;94.50;16.90;;;-0.20;99.90;;;;;;4991791;28;20279;-52
2021/03/02 06:55:20;;;;;;;46.10;16.37;;;-0.30;99.90;;;;;;4986610;28;20291;-50
2021/03/02 06:57:48;;;;;;;77.33;16.97;;;-0.30;99.90;;;;;;4994837;28;20607;-49
2021/03/02 07:00:15;;;;;;;70.30;17.03;;;-0.30;99.90;;;;;;5002155;28;20181;-48
2021/03/02 07:02:45;;;;;;;119.10;19.90;;;-0.30;99.90;;;;;;5013079;28;20197;-50
2021/03/02 07:05:18;;;;;;;65.43;17.27;;;-0.30;99.90;;;;;;5006746;28;22645;-49
2021/03/02 07:07:44;;;;;;;42.10;17.10;;;-0.20;99.90;;;;;;4995551;28;20221;-54
2021/03/02 07:10:11;;;;;;;69.53;18.37;;;-0.20;99.90;;;;;;4982121;28;20336;-50
2021/03/02 07:12:40;;;;;;;68.73;15.63;;;-0.20;99.90;;;;;;4998410;28;20217;-53
2021/03/02 07:15:11;;;;;;;85.70;17.23;;;-0.10;99.90;;;;;;4993813;28;20925;-46
2021/03/02 07:17:38;;;;;;;95.83;16.67;;;-0.10;99.90;;;;;;5002365;28;20288;-54
2021/03/02 07:20:07;;;;;;;65.47;16.53;;;-0.10;99.90;;;;;;5001717;28;20410;-47
2021/03/02 07:22:34;;;;;;;32.80;15.23;;;-0.10;99.90;;;;;;4987046;28;20765;-49
2021/03/02 07:25:01;;;;;;;33.33;14.63;;;0.00;99.90;;;;;;4980975;28;20308;-50
2021/03/02 07:27:30;;;;;;;38.20;14.53;;;0.10;99.90;;;;;;4997591;28;20200;-48
2021/03/02 07:29:59;;;;;;;39.60;14.53;;;0.10;99.90;;;;;;5003843;28;20272;-48
2021/03/02 07:32:25;;;;;;;43.60;15.73;;;0.10;99.90;;;;;;5006480;28;20219;-53
2021/03/02 07:34:51;;;;;;;51.57;15.83;;;0.10;99.90;;;;;;4997826;28;20208;-49
2021/03/02 07:37:20;;;;;;;49.17;15.17;;;0.10;99.90;;;;;;4979111;28;20205;-50
2021/03/02 07:40:03;;;;;;;44.97;15.10;;;0.10;99.90;;;;;;4948293;28;20834;-50
2021/03/02 07:42:28;;;;;;;30.03;13.87;;;0.10;99.90;;;;;;4987022;28;20525;-55
2021/03/02 07:45:28;;;;;;;34.93;14.70;;;0.20;99.90;;;;;;4990757;28;20224;-55
2021/03/02 07:47:56;;;;;;;32.00;14.83;;;0.20;99.90;;;;;;4998924;28;20192;-53
2021/03/02 07:50:30;;;;;;;38.33;15.43;;;0.30;99.90;;;;;;4993724;28;20221;-56
2021/03/02 07:53:21;;;;;;;35.00;15.90;;;0.30;99.90;;;;;;4991076;28;20237;-51
2021/03/02 07:55:48;;;;;;;33.97;14.77;;;0.30;99.90;;;;;;4981497;28;20225;-49
2021/03/02 07:58:20;;;;;;;31.07;14.00;;;0.40;99.90;;;;;;4988075;28;20463;-49
2021/03/02 08:00:50;;;;;;;23.10;12.70;;;0.40;99.90;;;;;;4990200;28;20277;-47
2021/03/02 08:03:26;;;;;;;20.63;12.13;;;0.40;99.90;;;;;;4998404;28;20739;-51
2021/03/02 08:05:57;;;;;;;26.07;13.17;;;0.50;99.90;;;;;;4998505;28;20215;-47
2021/03/02 08:08:22;;;;;;;21.63;13.07;;;0.60;99.90;;;;;;4991286;28;20750;-49
2021/03/02 08:10:49;;;;;;;28.53;14.30;;;0.70;99.90;;;;;;4987691;28;20600;-49
2021/03/02 08:13:43;;;;;;;27.67;14.23;;;0.70;99.90;;;;;;4972036;28;20197;-47
2021/03/02 08:16:15;;;;;;;29.07;15.70;;;0.90;99.90;;;;;;4980234;28;20302;-50
2021/03/02 08:18:43;;;;;;;26.80;14.60;;;1.00;99.90;;;;;;5001212;28;20256;-46
2021/03/02 08:21:18;;;;;;;25.90;13.30;;;0.90;99.90;;;;;;4990421;28;20302;-48
2021/03/02 08:23:46;;;;;;;25.07;14.17;;;0.90;99.90;;;;;;5002409;28;20321;-50
2021/03/02 08:26:23;;;;;;;23.17;13.50;;;1.00;99.90;;;;;;4974432;28;20367;-47
2021/03/02 08:29:17;;;;;;;23.60;13.83;;;1.10;99.90;;;;;;4984737;28;20714;-47
2021/03/02 08:31:45;;;;;;;25.27;14.10;;;1.10;99.90;;;;;;4986917;28;20236;-49
2021/03/02 08:34:13;;;;;;;23.57;14.70;;;1.20;99.90;;;;;;4978973;28;20292;-48
2021/03/02 08:36:39;;;;;;;26.83;15.30;;;1.20;99.90;;;;;;4995426;28;20191;-49
2021/03/02 08:39:12;;;;;;;20.03;13.83;;;1.30;99.90;;;;;;4982968;28;20881;-50
2021/03/02 08:41:41;;;;;;;21.60;13.47;;;1.40;99.90;;;;;;4990890;28;20227;-50
2021/03/02 08:44:15;;;;;;;26.87;14.93;;;1.50;99.90;;;;;;4971849;28;20697;-46
2021/03/02 08:46:40;;;;;;;22.77;13.77;;;1.60;99.90;;;;;;4988920;28;20341;-50
2021/03/02 08:49:12;;;;;;;22.47;14.03;;;1.80;99.90;;;;;;4992666;28;20283;-47
2021/03/02 08:51:39;;;;;;;23.17;13.90;;;1.90;99.90;;;;;;4988429;28;20184;-46
2021/03/02 08:54:05;;;;;;;24.37;14.73;;;1.90;99.90;;;;;;4987122;28;20186;-46
2021/03/02 08:56:31;;;;;;;24.20;13.60;;;2.00;99.90;;;;;;4981674;28;20231;-48
2021/03/02 08:59:10;;;;;;;26.00;14.47;;;2.10;99.90;;;;;;4979110;28;20213;-51
2021/03/02 09:01:37;;;;;;;28.17;14.60;;;2.20;99.90;;;;;;4980929;28;20246;-47
2021/03/02 09:04:10;;;;;;;21.73;13.57;;;2.30;99.90;;;;;;4980745;28;20698;-53
2021/03/02 09:06:38;;;;;;;22.87;13.10;;;2.50;99.90;;;;;;4993165;28;20275;-49
2021/03/02 09:09:08;;;;;;;22.97;14.10;;;2.70;99.90;;;;;;4977886;28;20208;-49
2021/03/02 09:11:56;;;;;;;26.10;13.77;;;2.80;99.90;;;;;;4985712;28;20192;-49
2021/03/02 09:14:22;;;;;;;21.90;13.00;;;2.90;99.90;;;;;;4980473;28;20318;-49
2021/03/02 09:16:50;;;;;;;23.27;14.00;;;3.00;99.90;;;;;;4995503;28;20180;-53
2021/03/02 09:19:26;;;;;;;22.40;13.87;;;3.00;99.90;;;;;;4987904;28;20600;-53
2021/03/02 09:21:53;;;;;;;23.37;13.50;;;3.00;99.90;;;;;;5002321;28;20189;-53
2021/03/02 09:24:21;;;;;;;24.50;14.37;;;3.10;99.90;;;;;;4987157;28;20680;-52
2021/03/02 09:26:51;;;;;;;23.30;14.67;;;3.10;99.90;;;;;;4986872;28;20188;-51
2021/03/02 09:29:18;;;;;;;21.13;13.40;;;3.10;99.90;;;;;;4981737;28;20193;-54
2021/03/02 09:31:44;;;;;;;31.27;15.77;;;3.30;99.90;;;;;;4999071;28;20189;-54
2021/03/02 09:34:10;;;;;;;27.53;16.27;;;3.60;99.90;;;;;;4986511;28;20248;-50
2021/03/02 09:36:35;;;;;;;23.77;14.00;;;3.80;99.90;;;;;;5005140;28;20668;-53
2021/03/02 09:39:20;;;;;;;24.40;13.77;;;3.80;99.90;;;;;;4991601;28;20265;-49
2021/03/02 09:41:47;;;;;;;26.00;15.17;;;3.90;99.90;;;;;;4981112;28;20834;-52
2021/03/02 09:44:20;;;;;;;22.07;14.90;;;3.90;99.90;;;;;;4995068;28;20224;-51
2021/03/02 09:46:47;;;;;;;25.43;14.07;;;4.00;99.90;;;;;;4975460;28;20333;-51
2021/03/02 09:49:42;;;;;;;25.43;14.60;;;4.00;99.90;;;;;;4980202;28;20243;-54
2021/03/02 09:52:24;;;;;;;27.77;15.60;;;4.10;99.90;;;;;;4996838;28;20528;-53
2021/03/02 09:55:09;;;;;;;25.53;14.50;;;4.20;99.90;;;;;;4988985;28;20251;-48
2021/03/02 09:58:13;;;;;;;25.60;15.43;;;4.30;99.90;;;;;;4983455;28;20199;-48
2021/03/02 10:00:45;;;;;;;29.47;15.83;;;4.40;99.90;;;;;;4982733;28;20200;-52
2021/03/02 10:03:11;;;;;;;31.63;15.67;;;4.50;99.90;;;;;;4992113;28;20221;-56
2021/03/02 10:05:45;;;;;;;30.87;17.00;;;4.60;99.90;;;;;;4983314;28;20918;-50
2021/03/02 10:08:32;;;;;;;35.93;16.73;;;4.70;99.90;;;;;;4996137;28;20205;-54
2021/03/02 10:11:01;;;;;;;29.90;16.57;;;4.90;99.90;;;;;;4988245;28;20264;-49
2021/03/02 10:13:32;;;;;;;33.07;16.87;;;5.10;99.90;;;;;;4981954;28;20200;-55
2021/03/02 10:16:18;;;;;;;30.47;17.60;;;5.20;99.90;;;;;;4988380;28;20319;-50
2021/03/02 10:18:48;;;;;;;29.60;16.63;;;5.30;99.90;;;;;;4989664;28;20185;-46
2021/03/02 10:21:14;;;;;;;28.20;15.20;;;5.40;99.90;;;;;;4992139;28;20668;-55
2021/03/02 10:23:48;;;;;;;26.70;15.37;;;5.40;99.90;;;;;;4993401;28;20331;-51
2021/03/02 10:26:20;;;;;;;29.13;15.77;;;5.50;99.90;;;;;;4995995;28;20217;-52
2021/03/02 10:28:45;;;;;;;29.53;16.40;;;5.60;99.90;;;;;;4987023;28;20248;-47
2021/03/02 10:31:11;;;;;;;31.83;16.20;;;5.70;99.90;;;;;;4985585;28;20185;-55
2021/03/02 10:33:37;;;;;;;25.83;16.23;;;5.70;99.90;;;;;;4981783;28;20262;-52
2021/03/02 10:36:02;;;;;;;28.13;15.80;;;5.70;99.90;;;;;;4996307;28;20200;-53
2021/03/02 10:38:29;;;;;;;28.30;17.07;;;5.80;99.90;;;;;;5000480;28;20714;-49
2021/03/02 10:40:54;;;;;;;32.90;16.77;;;5.90;99.90;;;;;;5001752;28;20185;-50
2021/03/02 10:43:20;;;;;;;31.60;16.53;;;6.00;99.90;;;;;;4991969;28;20254;-50
2021/03/02 10:45:46;;;;;;;28.17;15.03;;;6.10;99.90;;;;;;4996189;28;20221;-51
2021/03/02 10:48:12;;;;;;;28.40;15.70;;;6.20;99.90;;;;;;4987638;28;20188;-51
2021/03/02 10:50:37;;;;;;;26.20;15.50;;;6.30;99.90;;;;;;4980617;28;20194;-53
2021/03/02 10:53:03;;;;;;;25.33;16.50;;;6.20;99.90;;;;;;5004128;28;20247;-50
2021/03/02 10:55:29;;;;;;;23.20;14.80;;;6.20;99.90;;;;;;5004387;28;20510;-52
2021/03/02 10:57:54;;;;;;;24.03;15.23;;;6.20;99.90;;;;;;4991267;28;20185;-54
2021/03/02 11:00:20;;;;;;;24.73;15.30;;;6.30;99.90;;;;;;4997904;28;20199;-51
2021/03/02 11:02:46;;;;;;;29.23;16.20;;;6.40;99.90;;;;;;4984237;28;20181;-54
2021/03/02 11:05:12;;;;;;;25.40;14.63;;;6.60;99.90;;;;;;4991216;28;20509;-53
2021/03/02 11:07:38;;;;;;;22.13;14.17;;;6.70;99.90;;;;;;4993793;28;20195;-49
2021/03/02 11:10:05;;;;;;;22.03;14.03;;;6.80;99.90;;;;;;5001326;28;20216;-49
2021/03/02 11:12:30;;;;;;;28.30;14.90;;;6.80;99.90;;;;;;4994940;28;20181;-48
2021/03/02 11:14:56;;;;;;;26.30;15.33;;;6.90;99.90;;;;;;4997226;28;20581;-50
2021/03/02 11:17:22;;;;;;;25.60;14.90;;;7.00;99.90;;;;;;4995335;28;20210;-53
2021/03/02 11:19:50;;;;;;;23.83;14.00;;;7.10;99.90;;;;;;4989853;28;20258;-52
2021/03/02 11:22:16;;;;;;;26.20;14.10;;;7.20;99.90;;;;;;4994037;28;20642;-52
2021/03/02 11:24:41;;;;;;;21.23;13.43;;;7.20;99.90;;;;;;4993080;28;20219;-50
2021/03/02 11:27:07;;;;;;;22.27;14.03;;;7.30;99.90;;;;;;5001552;28;20187;-50
2021/03/02 11:29:35;;;;;;;25.60;14.70;;;7.40;99.90;;;;;;4990322;28;20173;-51
2021/03/02 11:32:03;;;;;;;24.57;15.93;;;7.50;99.90;;;;;;4987099;28;20207;-51
2021/03/02 11:34:29;;;;;;;26.63;14.90;;;7.60;99.90;;;;;;4985519;28;20208;-49
2021/03/02 11:36:54;;;;;;;25.40;14.73;;;7.70;99.90;;;;;;4993569;28;21101;-48
2021/03/02 11:39:20;;;;;;;23.50;14.37;;;7.70;99.90;;;;;;4995078;28;20192;-50
2021/03/02 11:41:46;;;;;;;25.33;15.07;;;7.80;99.90;;;;;;5001213;28;20189;-47
2021/03/02 11:44:11;;;;;;;24.90;15.83;;;8.00;99.90;;;;;;4991292;28;20355;-46
2021/03/02 11:46:37;;;;;;;26.97;15.17;;;8.10;99.90;;;;;;4995058;28;20200;-50
2021/03/02 11:49:03;;;;;;;26.30;15.73;;;8.10;99.90;;;;;;4987492;28;20335;-49
2021/03/02 11:51:28;;;;;;;28.17;15.67;;;8.10;99.90;;;;;;4988557;28;20225;-46
2021/03/02 11:53:54;;;;;;;24.20;15.63;;;8.30;99.90;;;;;;4998173;28;20188;-49
2021/03/02 11:56:19;;;;;;;29.43;15.67;;;8.30;99.90;;;;;;5005680;28;20541;-45
2021/03/02 11:58:45;;;;;;;25.47;15.67;;;8.50;99.90;;;;;;5001458;28;20688;-48
2021/03/02 12:01:10;;;;;;;23.00;15.00;;;8.60;99.90;;;;;;4974419;28;20216;-49
2021/03/02 12:03:36;;;;;;;25.90;15.47;;;8.70;99.90;;;;;;4991707;28;20209;-46
2021/03/02 12:06:02;;;;;;;23.10;15.33;;;8.90;99.90;;;;;;4979426;28;20197;-52
2021/03/02 12:08:27;;;;;;;25.87;15.50;;;8.90;99.90;;;;;;4987861;28;20193;-45
2021/03/02 12:10:53;;;;;;;24.03;15.10;;;9.00;99.90;;;;;;4988538;28;20177;-52
2021/03/02 12:13:19;;;;;;;25.40;15.17;;;9.20;99.90;;;;;;4989020;28;20197;-48
2021/03/02 12:15:44;;;;;;;27.77;15.77;;;9.30;99.90;;;;;;4986641;28;20284;-52
2021/03/02 12:18:10;;;;;;;23.67;15.10;;;9.30;99.90;;;;;;4982183;28;20220;-49
2021/03/02 12:20:37;;;;;;;28.83;16.37;;;9.50;99.90;;;;;;4993066;28;20699;-49
2021/03/02 12:23:03;;;;;;;23.60;14.70;;;9.50;99.90;;;;;;4979070;28;20204;-49
2021/03/02 12:25:28;;;;;;;27.77;15.83;;;9.50;99.90;;;;;;5001306;28;20184;-51
2021/03/02 12:27:54;;;;;;;24.60;14.87;;;9.70;99.90;;;;;;4991431;28;20642;-50
2021/03/02 12:30:20;;;;;;;23.57;15.30;;;9.80;99.90;;;;;;4989370;28;20831;-48
2021/03/02 12:32:45;;;;;;;26.00;15.43;;;9.80;99.90;;;;;;5000336;28;20638;-51
2021/03/02 12:35:12;;;;;;;23.67;15.07;;;10.00;99.90;;;;;;4978602;28;20231;-58
2021/03/02 12:37:38;;;;;;;25.83;14.67;;;10.00;99.90;;;;;;4973201;28;20272;-58
2021/03/02 12:40:04;;;;;;;21.67;13.93;;;10.10;99.90;;;;;;4993500;28;20769;-57
2021/03/02 12:42:30;;;;;;;21.90;14.57;;;10.20;99.90;;;;;;4988484;28;20945;-52